createdAt,value
2019-04-14T00:02:44.773Z,52.80
2019-04-14T00:05:16.929Z,52.90
2019-04-14T00:07:47.174Z,52.80
2019-04-14T00:10:18.613Z,53.00
2019-04-14T00:12:49.237Z,53.00
2019-04-14T00:15:27.839Z,53.20
2019-04-14T00:17:50.433Z,53.10
2019-04-14T00:20:20.717Z,53.20
2019-04-14T00:22:51.262Z,53.20
2019-04-14T00:25:21.623Z,53.30
2019-04-14T00:27:52.193Z,53.30
2019-04-14T00:30:25.078Z,53.40
2019-04-14T00:32:57.426Z,53.50
2019-04-14T00:35:32.107Z,53.40
2019-04-14T00:38:06.363Z,53.30
2019-04-14T00:40:37.477Z,53.20
2019-04-14T00:43:17.909Z,53.20
2019-04-14T00:45:53.515Z,53.20
2019-04-14T00:48:22.954Z,53.40
2019-04-14T00:50:53.973Z,53.60
2019-04-14T00:53:23.611Z,53.60
2019-04-14T00:55:53.362Z,53.60
2019-04-14T00:58:23.673Z,53.60
2019-04-14T01:00:53.800Z,53.70
2019-04-14T01:03:24.454Z,53.70
2019-04-14T01:05:56.935Z,53.90
2019-04-14T01:08:26.990Z,54.00
2019-04-14T01:10:56.608Z,54.20
2019-04-14T01:13:26.784Z,54.30
2019-04-14T01:16:03.868Z,54.40
2019-04-14T01:18:27.665Z,54.50
2019-04-14T01:20:57.890Z,54.50
2019-04-14T01:23:28.310Z,54.70
2019-04-14T01:25:58.480Z,54.70
2019-04-14T01:28:28.682Z,54.50
2019-04-14T01:30:59.047Z,54.50
2019-04-14T01:33:29.385Z,54.40
2019-04-14T01:35:59.609Z,54.30
2019-04-14T01:38:29.698Z,55.10
2019-04-14T01:40:59.927Z,54.50
2019-04-14T01:43:32.131Z,54.50
2019-04-14T01:46:13.719Z,55.00
2019-04-14T01:48:33.007Z,54.50
2019-04-14T01:51:16.413Z,54.50
2019-04-14T01:53:48.638Z,54.40
2019-04-14T01:56:20.887Z,54.60
2019-04-14T01:58:53.406Z,54.40
2019-04-14T02:01:26.000Z,54.50
2019-04-14T02:03:56.342Z,54.60
2019-04-14T02:06:26.628Z,54.70
2019-04-14T02:08:56.851Z,54.60
2019-04-14T02:11:27.006Z,54.50
2019-04-14T02:13:57.225Z,54.80
2019-04-14T02:16:34.780Z,54.80
2019-04-14T02:18:58.631Z,54.90
2019-04-14T02:21:28.347Z,55.50
2019-04-14T02:23:58.337Z,54.80
2019-04-14T02:26:30.815Z,54.90
2019-04-14T02:29:01.421Z,55.00
2019-04-14T02:31:56.834Z,54.90
2019-04-14T02:34:33.620Z,55.10
2019-04-14T02:37:08.391Z,55.60
2019-04-14T02:42:26.191Z,55.30
2019-04-14T02:44:41.953Z,55.30
2019-04-14T02:47:27.126Z,55.30
2019-04-14T02:52:14.302Z,55.40
2019-04-14T02:57:16.771Z,55.40
2019-04-14T02:59:42.921Z,55.60
2019-04-14T03:02:24.693Z,55.70
2019-04-14T03:07:23.261Z,55.50
2019-04-14T03:09:47.086Z,55.40
2019-04-14T03:12:28.665Z,55.30
2019-04-14T03:14:53.835Z,55.30
2019-04-14T03:17:29.269Z,55.20
2019-04-14T03:25:15.264Z,55.20
2019-04-14T03:27:58.440Z,55.20
2019-04-14T03:33:41.989Z,55.30
2019-04-14T03:40:50.586Z,55.50
2019-04-14T03:46:02.653Z,55.90
2019-04-14T03:48:42.863Z,56.20
2019-04-14T03:50:53.343Z,56.50
2019-04-14T03:53:59.004Z,56.50
2019-04-14T03:55:55.785Z,56.80
2019-04-14T03:58:20.955Z,56.80
2019-04-14T04:00:51.516Z,57.10
2019-04-14T04:03:21.818Z,57.40
2019-04-14T04:05:52.177Z,57.40
2019-04-14T04:08:22.363Z,57.40
2019-04-14T04:10:59.792Z,57.60
2019-04-14T04:13:30.222Z,57.70
2019-04-14T04:16:13.793Z,57.70
2019-04-14T04:18:50.906Z,57.70
2019-04-14T04:21:20.549Z,57.80
2019-04-14T04:23:51.865Z,57.70
2019-04-14T04:26:25.800Z,57.70
2019-04-14T04:28:56.913Z,58.10
2019-04-14T04:31:28.614Z,57.60
2019-04-14T04:34:01.058Z,57.50
2019-04-14T04:36:38.432Z,57.20
2019-04-14T04:39:21.681Z,57.10
2019-04-14T04:41:51.595Z,57.00
2019-04-14T04:44:22.310Z,56.70
2019-04-14T04:46:52.755Z,56.70
2019-04-14T04:49:25.771Z,56.80
2019-04-14T04:51:53.395Z,57.10
2019-04-14T04:54:23.544Z,56.60
2019-04-14T04:56:53.756Z,56.70
2019-04-14T04:59:23.511Z,56.70
2019-04-14T05:01:53.830Z,56.50
2019-04-14T05:04:24.350Z,56.50
2019-04-14T05:06:59.612Z,56.50
2019-04-14T05:09:38.533Z,56.40
2019-04-14T05:12:26.735Z,56.40
2019-04-14T05:15:01.080Z,56.40
2019-04-14T05:17:36.639Z,56.40
2019-04-14T05:20:07.391Z,56.30
2019-04-14T05:22:37.585Z,56.20
2019-04-14T05:25:07.958Z,56.30
2019-04-14T05:27:38.665Z,56.30
2019-04-14T05:30:09.029Z,56.30
2019-04-14T05:32:39.094Z,56.30
2019-04-14T05:35:09.661Z,56.50
2019-04-14T05:37:40.058Z,56.50
2019-04-14T05:40:10.267Z,56.40
2019-04-14T05:42:40.720Z,56.40
2019-04-14T05:45:11.197Z,56.40
2019-04-14T05:47:41.463Z,56.30
2019-04-14T05:50:11.708Z,56.40
2019-04-14T05:52:42.358Z,56.20
2019-04-14T05:55:13.392Z,56.10
2019-04-14T05:57:43.774Z,56.00
2019-04-14T06:00:16.742Z,55.80
2019-04-14T06:02:46.522Z,56.00
2019-04-14T06:05:16.622Z,55.80
2019-04-14T06:07:46.324Z,55.60
2019-04-14T06:10:16.517Z,55.60
2019-04-14T06:12:46.081Z,55.50
2019-04-14T06:15:15.723Z,55.50
2019-04-14T06:17:45.248Z,55.40
2019-04-14T06:20:14.743Z,55.20
2019-04-14T06:22:44.239Z,55.00
2019-04-14T06:25:13.851Z,54.70
2019-04-14T06:27:43.505Z,55.20
2019-04-14T06:30:30.597Z,54.60
2019-04-14T06:33:02.026Z,54.30
2019-04-14T06:35:35.899Z,54.20
2019-04-14T06:38:07.112Z,54.10
2019-04-14T06:40:44.295Z,53.80
2019-04-14T06:43:14.168Z,53.90
2019-04-14T06:45:43.872Z,53.40
2019-04-14T06:48:13.343Z,53.50
2019-04-14T06:50:42.815Z,53.20
2019-04-14T06:53:12.592Z,52.80
2019-04-14T06:55:42.058Z,52.60
2019-04-14T06:58:11.555Z,51.90
2019-04-14T07:00:40.991Z,51.80
2019-04-14T07:03:12.045Z,51.60
2019-04-14T07:05:41.480Z,51.60
2019-04-14T07:08:11.061Z,51.80
2019-04-14T07:10:40.621Z,51.40
2019-04-14T07:13:13.737Z,52.60
2019-04-14T07:15:41.639Z,52.10
2019-04-14T07:18:12.157Z,51.90
2019-04-14T07:20:41.827Z,51.90
2019-04-14T07:23:11.255Z,51.90
2019-04-14T07:25:41.224Z,51.50
2019-04-14T07:28:10.982Z,50.80
2019-04-14T07:30:45.095Z,50.40
2019-04-14T07:33:16.259Z,50.30
2019-04-14T07:35:53.430Z,50.10
2019-04-14T07:38:24.602Z,49.70
2019-04-14T07:41:04.932Z,49.00
2019-04-14T07:43:36.268Z,49.20
2019-04-14T07:46:19.754Z,49.20
2019-04-14T07:48:56.617Z,49.10
2019-04-14T07:51:30.290Z,49.00
2019-04-14T07:54:04.453Z,49.00
2019-04-14T07:56:41.572Z,48.80
2019-04-14T07:59:12.977Z,48.10
2019-04-14T08:01:59.057Z,47.80
2019-04-14T08:04:36.251Z,47.50
2019-04-14T08:07:05.896Z,47.50
2019-04-14T08:09:35.391Z,47.40
2019-04-14T08:12:05.080Z,47.40
2019-04-14T08:14:34.815Z,47.00
2019-04-14T08:17:04.383Z,47.50
2019-04-14T08:19:34.213Z,47.10
2019-04-14T08:22:03.782Z,46.90
2019-04-14T08:24:33.333Z,47.10
2019-04-14T08:27:02.790Z,46.80
2019-04-14T08:29:32.296Z,46.70
2019-04-14T08:32:02.234Z,46.30
2019-04-14T08:34:31.783Z,46.50
2019-04-14T08:37:04.880Z,45.20
2019-04-14T08:39:34.404Z,44.70
2019-04-14T08:42:05.651Z,44.60
2019-04-14T08:44:39.470Z,44.20
2019-04-14T08:47:25.764Z,43.80
2019-04-14T08:49:58.992Z,44.40
2019-04-14T08:52:30.088Z,43.00
2019-04-14T08:55:03.981Z,42.70
2019-04-14T08:57:38.148Z,42.80
2019-04-14T09:00:12.386Z,42.70
2019-04-14T09:02:53.292Z,43.40
2019-04-14T09:05:41.009Z,43.70
2019-04-14T09:08:12.201Z,43.80
2019-04-14T09:10:52.625Z,44.00
2019-04-14T09:13:22.223Z,44.30
2019-04-14T09:15:52.948Z,44.10
2019-04-14T09:18:22.457Z,44.00
2019-04-14T09:20:52.830Z,44.20
2019-04-14T09:23:22.510Z,44.70
2019-04-14T09:25:52.017Z,44.80
2019-04-14T09:28:21.625Z,45.20
2019-04-14T09:30:51.208Z,45.00
2019-04-14T09:33:20.652Z,45.20
2019-04-14T09:35:50.392Z,44.90
2019-04-14T09:38:19.835Z,44.90
2019-04-14T09:40:49.420Z,44.90
2019-04-14T09:43:19.137Z,45.10
2019-04-14T09:45:48.573Z,44.70
2019-04-14T09:48:18.093Z,45.00
2019-04-14T09:50:47.640Z,44.60
2019-04-14T09:53:17.127Z,44.30
2019-04-14T09:55:46.704Z,44.50
2019-04-14T09:58:16.777Z,44.00
2019-04-14T10:00:46.683Z,43.60
2019-04-14T10:03:16.206Z,44.60
2019-04-14T10:05:45.848Z,44.10
2019-04-14T10:08:15.716Z,43.50
2019-04-14T10:10:45.228Z,43.30
2019-04-14T10:13:14.796Z,43.00
2019-04-14T10:15:44.327Z,43.40
2019-04-14T10:18:14.547Z,42.80
2019-04-14T10:20:44.364Z,43.20
2019-04-14T10:23:13.803Z,42.40
2019-04-14T10:25:43.243Z,41.80
2019-04-14T10:28:12.791Z,41.40
2019-04-14T10:30:42.301Z,41.40
2019-04-14T10:33:11.883Z,41.70
2019-04-14T10:35:41.466Z,41.60
2019-04-14T10:38:11.301Z,40.90
2019-04-14T10:40:40.740Z,41.10
2019-04-14T10:43:10.740Z,39.10
2019-04-14T10:45:40.287Z,39.10
2019-04-14T10:48:09.785Z,38.50
2019-04-14T10:50:39.348Z,34.80
2019-04-14T10:53:08.929Z,33.80
2019-04-14T10:55:38.366Z,32.50
2019-04-14T10:58:07.964Z,31.80
2019-04-14T11:00:37.636Z,30.20
2019-04-14T11:03:07.072Z,31.70
2019-04-14T11:05:53.872Z,32.30
2019-04-14T11:08:23.310Z,31.50
2019-04-14T11:10:52.815Z,29.90
2019-04-14T11:13:22.733Z,29.00
2019-04-14T11:15:52.628Z,31.20
2019-04-14T11:18:22.252Z,33.40
2019-04-14T11:20:52.305Z,35.20
2019-04-14T11:23:21.740Z,36.30
2019-04-14T11:25:51.312Z,36.40
2019-04-14T11:28:21.461Z,36.80
2019-04-14T11:30:51.271Z,36.50
2019-04-14T11:33:25.337Z,35.50
2019-04-14T11:35:56.604Z,34.20
2019-04-14T11:38:33.331Z,32.20
2019-04-14T11:41:04.451Z,30.20
2019-04-14T11:43:33.964Z,30.40
2019-04-14T11:46:04.246Z,31.60
2019-04-14T11:48:34.296Z,30.40
2019-04-14T11:51:03.870Z,30.40
2019-04-14T11:53:33.303Z,28.40
2019-04-14T11:56:02.831Z,28.10
2019-04-14T11:58:51.895Z,29.40
2019-04-14T12:01:39.981Z,31.30
2019-04-14T12:04:23.373Z,32.10
2019-04-14T12:06:54.680Z,31.10
2019-04-14T12:09:26.137Z,31.90
2019-04-14T12:11:55.646Z,32.40
2019-04-14T12:14:25.112Z,33.20
2019-04-14T12:16:54.953Z,34.00
2019-04-14T12:19:24.459Z,34.90
2019-04-14T12:21:54.205Z,34.90
2019-04-14T12:24:23.707Z,35.60
2019-04-14T12:26:53.226Z,36.10
2019-04-14T12:29:23.619Z,34.70
2019-04-14T12:31:55.272Z,34.60
2019-04-14T12:34:25.163Z,35.80
2019-04-14T12:36:54.702Z,35.80
2019-04-14T12:39:25.111Z,36.60
2019-04-14T12:41:56.602Z,36.70
2019-04-14T12:44:30.271Z,36.90
2019-04-14T12:47:17.422Z,37.00
2019-04-14T12:49:51.584Z,37.40
2019-04-14T12:52:22.656Z,37.50
2019-04-14T12:54:52.100Z,37.50
2019-04-14T12:57:35.283Z,37.70
2019-04-14T13:00:08.400Z,37.80
2019-04-14T13:02:39.894Z,38.00
2019-04-14T13:05:09.951Z,35.70
2019-04-14T13:07:39.435Z,32.70
2019-04-14T13:10:09.978Z,30.90
2019-04-14T13:12:39.522Z,31.60
2019-04-14T13:15:09.564Z,33.40
2019-04-14T13:17:39.400Z,35.00
2019-04-14T13:20:09.112Z,36.20
2019-04-14T13:22:38.967Z,33.10
2019-04-14T13:25:08.748Z,31.90
2019-04-14T13:27:38.504Z,33.10
2019-04-14T13:30:10.505Z,34.60
2019-04-14T13:32:40.015Z,35.80
2019-04-14T13:35:09.734Z,36.40
2019-04-14T13:37:39.517Z,37.50
2019-04-14T13:40:09.464Z,38.20
2019-04-14T13:42:39.195Z,39.00
2019-04-14T13:45:09.150Z,39.40
2019-04-14T13:47:38.807Z,39.70
2019-04-14T13:50:08.901Z,40.20
2019-04-14T13:52:46.520Z,40.30
2019-04-14T13:55:10.301Z,40.30
2019-04-14T13:57:40.004Z,40.10
2019-04-14T14:00:12.229Z,40.20
2019-04-14T14:02:42.978Z,40.50
2019-04-14T14:05:13.202Z,41.50
2019-04-14T14:07:42.649Z,42.20
2019-04-14T14:10:13.390Z,42.90
2019-04-14T14:12:53.415Z,43.20
2019-04-14T14:15:42.789Z,43.60
2019-04-14T14:18:20.133Z,43.40
2019-04-14T14:20:51.477Z,43.10
2019-04-14T14:23:22.916Z,43.40
2019-04-14T14:25:57.194Z,43.80
2019-04-14T14:28:26.717Z,43.70
2019-04-14T14:30:56.221Z,43.70
2019-04-14T14:33:25.817Z,43.90
2019-04-14T14:35:55.273Z,44.20
2019-04-14T14:38:24.880Z,44.20
2019-04-14T14:40:55.779Z,44.80
2019-04-14T14:43:25.327Z,44.60
2019-04-14T14:46:02.491Z,44.90
2019-04-14T14:48:39.764Z,44.90
2019-04-14T14:51:11.068Z,45.10
2019-04-14T14:53:40.687Z,45.70
2019-04-14T14:56:10.530Z,45.20
2019-04-14T14:58:40.028Z,45.90
2019-04-14T15:01:09.680Z,45.30
2019-04-14T15:03:39.184Z,45.10
2019-04-14T15:06:08.912Z,45.50
2019-04-14T15:08:38.438Z,45.70
2019-04-14T15:11:07.949Z,45.80
2019-04-14T15:13:37.492Z,46.00
2019-04-14T15:16:07.405Z,46.00
2019-04-14T15:18:37.041Z,46.80
2019-04-14T15:21:06.583Z,46.50
2019-04-14T15:23:36.023Z,46.60
2019-04-14T15:26:05.700Z,46.60
2019-04-14T15:28:35.192Z,46.90
2019-04-14T15:31:04.777Z,47.00
2019-04-14T15:33:34.623Z,47.10
2019-04-14T15:36:04.363Z,47.10
2019-04-14T15:38:35.389Z,47.00
2019-04-14T15:41:04.951Z,46.90
2019-04-14T15:43:34.563Z,46.80
2019-04-14T15:46:04.137Z,46.80
2019-04-14T15:48:35.554Z,46.90
2019-04-14T15:51:05.396Z,46.80
2019-04-14T15:53:38.141Z,47.00
2019-04-14T15:56:07.758Z,47.10
2019-04-14T15:58:38.944Z,47.40
2019-04-14T16:01:28.618Z,47.40
2019-04-14T16:04:02.681Z,47.60
2019-04-14T16:06:33.801Z,47.70
2019-04-14T16:09:08.855Z,47.60
2019-04-14T16:11:55.340Z,47.60
2019-04-14T16:14:43.005Z,47.60
2019-04-14T16:17:32.348Z,47.30
2019-04-14T16:20:03.918Z,47.20
2019-04-14T16:22:33.704Z,47.10
2019-04-14T16:25:03.284Z,47.20
2019-04-14T16:27:34.723Z,47.60
2019-04-14T16:30:09.837Z,47.80
2019-04-14T16:32:52.964Z,48.10
2019-04-14T16:35:24.053Z,48.30
2019-04-14T16:37:53.567Z,48.40
2019-04-14T16:40:23.205Z,48.60
2019-04-14T16:42:52.688Z,48.60
2019-04-14T16:45:22.261Z,48.60
2019-04-14T16:47:52.106Z,48.60
2019-04-14T16:50:21.744Z,48.70
2019-04-14T16:52:56.897Z,48.70
2019-04-14T16:55:29.679Z,48.70
2019-04-14T16:58:12.680Z,49.00
2019-04-14T17:00:46.925Z,49.10
2019-04-14T17:03:16.530Z,49.30
2019-04-14T17:05:45.998Z,49.40
2019-04-14T17:08:15.473Z,49.20
2019-04-14T17:10:44.977Z,49.30
2019-04-14T17:13:14.524Z,49.30
2019-04-14T17:15:48.733Z,49.30
2019-04-14T17:18:22.404Z,49.40
2019-04-14T17:20:59.459Z,49.40
2019-04-14T17:23:33.336Z,49.50
2019-04-14T17:26:21.425Z,49.50
2019-04-14T17:28:56.139Z,49.60
2019-04-14T17:31:27.280Z,49.60
2019-04-14T17:33:58.627Z,49.80
2019-04-14T17:36:33.036Z,50.00
2019-04-14T17:39:07.519Z,49.80
2019-04-14T17:41:38.700Z,50.00
2019-04-14T17:44:09.775Z,50.00
2019-04-14T17:46:59.036Z,50.20
2019-04-14T17:49:39.744Z,50.80
2019-04-14T17:52:29.170Z,50.20
2019-04-14T17:55:06.249Z,50.50
2019-04-14T17:57:43.580Z,50.70
2019-04-14T18:00:14.977Z,50.80
2019-04-14T18:02:49.227Z,51.10
2019-04-14T18:05:35.087Z,50.90
2019-04-14T18:08:09.309Z,51.20
2019-04-14T18:10:40.696Z,52.10
2019-04-14T18:13:17.760Z,52.20
2019-04-14T18:16:05.765Z,52.30
2019-04-14T18:18:42.739Z,52.40
2019-04-14T18:21:12.164Z,52.70
2019-04-14T18:23:41.707Z,52.50
2019-04-14T18:26:11.243Z,52.50
2019-04-14T18:28:42.314Z,52.50
2019-04-14T18:31:30.140Z,52.70
2019-04-14T18:34:07.018Z,52.70
2019-04-14T18:36:49.060Z,52.60
2019-04-14T18:39:36.372Z,52.60
2019-04-14T18:42:07.596Z,52.80
2019-04-14T18:44:50.713Z,52.90
2019-04-14T18:47:27.791Z,52.90
2019-04-14T18:50:01.682Z,52.90
2019-04-14T18:52:45.205Z,53.00
2019-04-14T18:55:18.929Z,53.10
2019-04-14T18:58:06.585Z,53.20
2019-04-14T19:00:37.652Z,53.20
2019-04-14T19:03:08.792Z,53.70
2019-04-14T19:05:38.261Z,53.40
2019-04-14T19:08:07.698Z,53.40
2019-04-14T19:10:37.132Z,53.60
2019-04-14T19:13:09.347Z,53.90
2019-04-14T19:15:43.490Z,53.90
2019-04-14T19:18:14.729Z,53.90
2019-04-14T19:21:01.042Z,54.10
2019-04-14T19:23:30.571Z,54.30
2019-04-14T19:26:00.141Z,54.30
2019-04-14T19:28:29.907Z,54.40
2019-04-14T19:30:59.551Z,54.60
2019-04-14T19:33:29.420Z,54.80
2019-04-14T19:35:59.023Z,55.00
2019-04-14T19:38:28.611Z,55.10
2019-04-14T19:40:58.057Z,55.20
2019-04-14T19:43:27.486Z,55.40
2019-04-14T19:45:57.111Z,55.30
2019-04-14T19:48:26.986Z,55.40
2019-04-14T19:50:56.561Z,55.60
2019-04-14T19:53:26.207Z,55.80
2019-04-14T19:55:55.643Z,55.90
2019-04-14T19:58:25.143Z,56.30
2019-04-14T20:00:54.836Z,56.50
2019-04-14T20:03:24.335Z,57.00
2019-04-14T20:05:53.902Z,57.00
2019-04-14T20:08:23.448Z,57.20
2019-04-14T20:10:52.956Z,57.30
2019-04-14T20:13:22.593Z,57.50
2019-04-14T20:16:09.269Z,57.50
2019-04-14T20:18:56.425Z,57.80
2019-04-14T20:21:27.621Z,57.70
2019-04-14T20:23:58.815Z,57.70
2019-04-14T20:26:42.086Z,57.80
2019-04-14T20:29:13.379Z,57.80
2019-04-14T20:31:45.218Z,57.70
2019-04-14T20:34:15.157Z,57.60
2019-04-14T20:36:44.784Z,57.70
2019-04-14T20:39:14.961Z,57.60
2019-04-14T20:41:44.563Z,57.50
2019-04-14T20:44:14.754Z,57.40
2019-04-14T20:47:04.369Z,57.60
2019-04-14T20:49:33.870Z,57.70
2019-04-14T20:52:03.368Z,57.90
2019-04-14T20:54:32.973Z,57.90
2019-04-14T20:57:02.503Z,58.20
2019-04-14T20:59:32.092Z,58.30
2019-04-14T21:02:03.357Z,58.50
2019-04-14T21:04:46.218Z,58.70
2019-04-14T21:07:23.201Z,59.00
2019-04-14T21:10:03.480Z,59.50
2019-04-14T21:12:52.497Z,59.30
2019-04-14T21:15:23.719Z,59.20
2019-04-14T21:18:09.788Z,59.20
2019-04-14T21:20:40.874Z,59.30
2019-04-14T21:23:11.940Z,59.10
2019-04-14T21:25:59.250Z,59.10
2019-04-14T21:28:42.547Z,58.90
2019-04-14T21:31:19.624Z,58.90
2019-04-14T21:34:02.858Z,58.80
2019-04-14T21:36:50.732Z,58.70
2019-04-14T21:39:34.142Z,58.80
2019-04-14T21:42:03.682Z,58.40
2019-04-14T21:44:33.181Z,58.50
2019-04-14T21:47:02.680Z,58.50
2019-04-14T21:49:32.589Z,58.70
2019-04-14T21:52:09.421Z,58.60
2019-04-14T21:54:40.596Z,58.90
2019-04-14T21:57:14.272Z,59.00
2019-04-14T21:59:57.716Z,59.00
2019-04-14T22:02:45.843Z,59.30
2019-04-14T22:05:33.214Z,59.30
2019-04-14T22:08:04.282Z,59.20
2019-04-14T22:10:41.133Z,58.90
2019-04-14T22:13:10.762Z,59.00
2019-04-14T22:15:40.272Z,59.00
2019-04-14T22:18:09.905Z,59.00
2019-04-14T22:20:39.425Z,59.20
2019-04-14T22:23:10.957Z,59.20
2019-04-14T22:25:40.673Z,59.40
2019-04-14T22:28:10.371Z,59.50
2019-04-14T22:30:40.042Z,59.40
2019-04-14T22:33:09.619Z,59.40
2019-04-14T22:35:39.039Z,59.60
2019-04-14T22:38:08.573Z,59.60
2019-04-14T22:40:38.101Z,59.80
2019-04-14T22:43:07.866Z,59.90
2019-04-14T22:45:37.370Z,60.20
2019-04-14T22:48:06.976Z,60.90
2019-04-14T22:50:36.506Z,61.00
2019-04-14T22:53:06.169Z,60.80
2019-04-14T22:55:35.786Z,60.60
2019-04-14T22:58:05.346Z,60.70
2019-04-14T23:00:52.205Z,60.70
2019-04-14T23:03:23.449Z,60.70
2019-04-14T23:06:00.689Z,60.30
2019-04-14T23:08:32.080Z,60.00
2019-04-14T23:11:03.156Z,60.60
2019-04-14T23:13:40.179Z,60.70
2019-04-14T23:16:16.400Z,61.40
2019-04-14T23:18:50.043Z,61.30
2019-04-14T23:21:30.100Z,61.40
2019-04-14T23:24:10.232Z,61.20
2019-04-14T23:26:51.919Z,61.10
2019-04-14T23:29:11.026Z,61.50
2019-04-14T23:31:59.974Z,61.80
2019-04-14T23:34:29.550Z,61.90
2019-04-14T23:36:58.975Z,62.20
2019-04-14T23:39:28.952Z,61.90
2019-04-14T23:41:58.459Z,61.70
2019-04-14T23:44:28.325Z,62.00
2019-04-14T23:46:57.889Z,62.20
2019-04-14T23:49:27.461Z,62.60
2019-04-14T23:51:57.063Z,63.40
2019-04-14T23:54:26.583Z,63.30
2019-04-14T23:57:05.549Z,63.80
2019-04-14T23:59:27.601Z,64.00
